Time;durP1;ratioP1;P1;durP2;ratioP2;P2;SDS_P1;SDS_P2;PMS_P1;PMS_P2;Temp;Humidity;BMP_temperature;BMP_pressure;BME280_temperature;BME280_humidity;BME280_pressure;Samples;Min_cycle;Max_cycle;Signal;HPM_P1;HPM_P2
2021/08/01 00:01:58;;;;;;;6.63;4.00;;;;;;;;;;5033591;28;20510;-55
2021/08/01 00:04:25;;;;;;;8.93;5.00;;;;;;;;;;5033473;28;20503;-55
2021/08/01 00:06:52;;;;;;;5.20;4.80;;;;;;;;;;5033501;28;20516;-56
2021/08/01 00:09:21;;;;;;;5.03;4.57;;;;;;;;;;5033916;28;20441;-56
2021/08/01 00:11:48;;;;;;;5.73;4.80;;;;;;;;;;5033043;28;20444;-56
2021/08/01 00:14:16;;;;;;;4.83;4.23;;;;;;;;;;5033204;28;20496;-56
2021/08/01 00:16:43;;;;;;;9.67;5.13;;;;;;;;;;5033557;28;20469;-57
2021/08/01 00:19:10;;;;;;;5.10;4.40;;;;;;;;;;5033298;28;20967;-55
2021/08/01 00:21:37;;;;;;;9.53;5.10;;;;;;;;;;5034067;28;20452;-56
2021/08/01 00:24:05;;;;;;;5.53;5.13;;;;;;;;;;5035830;28;20536;-56
2021/08/01 00:26:33;;;;;;;6.30;5.10;;;;;;;;;;5037232;28;21023;-55
2021/08/01 00:29:01;;;;;;;6.60;5.00;;;;;;;;;;5037040;28;21011;-55
2021/08/01 00:31:28;;;;;;;6.40;4.73;;;;;;;;;;5037322;28;20854;-56
2021/08/01 00:33:57;;;;;;;6.47;5.00;;;;;;;;;;5036851;28;20479;-53
2021/08/01 00:36:24;;;;;;;5.53;5.00;;;;;;;;;;5036782;28;20468;-54
2021/08/01 00:38:52;;;;;;;7.17;5.40;;;;;;;;;;5036966;28;20445;-52
2021/08/01 00:41:19;;;;;;;5.03;4.53;;;;;;;;;;5037045;28;20853;-55
2021/08/01 00:43:47;;;;;;;4.73;4.23;;;;;;;;;;5036679;28;20445;-53
2021/08/01 00:46:18;;;;;;;6.13;4.87;;;;;;;;;;5036552;28;20504;-53
2021/08/01 00:48:45;;;;;;;6.73;5.03;;;;;;;;;;5036882;28;20452;-53
2021/08/01 00:51:13;;;;;;;5.80;4.60;;;;;;;;;;5036813;28;20453;-53
2021/08/01 00:53:40;;;;;;;5.33;4.83;;;;;;;;;;5036717;28;20530;-54
2021/08/01 00:56:07;;;;;;;5.90;5.40;;;;;;;;;;5036363;28;20491;-55
2021/08/01 00:58:35;;;;;;;6.43;4.87;;;;;;;;;;5036692;28;20475;-52
2021/08/01 01:01:07;;;;;;;5.73;5.13;;;;;;;;;;5037102;28;20926;-53
2021/08/01 01:03:39;;;;;;;8.83;5.50;;;;;;;;;;5036716;28;20421;-54
2021/08/01 01:06:10;;;;;;;5.63;5.07;;;;;;;;;;5036173;28;20464;-52
2021/08/01 01:08:42;;;;;;;9.23;6.03;;;;;;;;;;5036296;28;20437;-53
2021/08/01 01:11:12;;;;;;;9.10;5.57;;;;;;;;;;5036583;28;20483;-54
2021/08/01 01:13:42;;;;;;;5.87;5.03;;;;;;;;;;5036461;28;20560;-52
2021/08/01 01:16:10;;;;;;;6.13;5.53;;;;;;;;;;5036055;28;20465;-53
2021/08/01 01:18:42;;;;;;;6.17;5.60;;;;;;;;;;5036106;28;20441;-56
2021/08/01 01:21:23;;;;;;;5.50;4.97;;;;;;;;;;5036365;28;20429;-56
2021/08/01 01:23:54;;;;;;;5.20;4.70;;;;;;;;;;5036248;28;20841;-55
2021/08/01 01:26:25;;;;;;;7.33;5.57;;;;;;;;;;5036154;28;20969;-52
2021/08/01 01:28:58;;;;;;;8.10;6.37;;;;;;;;;;5036221;28;20794;-55
2021/08/01 01:31:30;;;;;;;7.03;5.60;;;;;;;;;;5036238;28;20475;-54
2021/08/01 01:34:10;;;;;;;6.40;5.80;;;;;;;;;;5035732;28;20457;-55
2021/08/01 01:36:41;;;;;;;6.70;6.00;;;;;;;;;;5035364;28;20468;-53
2021/08/01 01:39:09;;;;;;;5.83;5.07;;;;;;;;;;5036220;28;20433;-55
2021/08/01 01:41:37;;;;;;;6.47;5.77;;;;;;;;;;5036276;28;20449;-55
2021/08/01 01:44:06;;;;;;;6.50;5.90;;;;;;;;;;5035891;28;20437;-55
2021/08/01 01:46:35;;;;;;;5.50;5.10;;;;;;;;;;5035745;28;20871;-52
2021/08/01 01:49:02;;;;;;;6.00;5.40;;;;;;;;;;5035493;28;20445;-55
2021/08/01 01:51:31;;;;;;;7.33;5.40;;;;;;;;;;5035616;28;20496;-52
2021/08/01 01:53:59;;;;;;;6.33;5.33;;;;;;;;;;5035302;28;20991;-55
2021/08/01 01:56:27;;;;;;;6.77;6.17;;;;;;;;;;5035369;28;20535;-55
2021/08/01 01:58:55;;;;;;;6.33;5.80;;;;;;;;;;5035432;28;20461;-54
2021/08/01 02:01:22;;;;;;;9.30;6.20;;;;;;;;;;5035454;28;20453;-52
2021/08/01 02:03:51;;;;;;;6.60;6.00;;;;;;;;;;5035540;28;20441;-55
2021/08/01 02:06:19;;;;;;;6.50;5.80;;;;;;;;;;5035457;28;20887;-51
2021/08/01 02:08:56;;;;;;;7.10;5.60;;;;;;;;;;5035938;28;20445;-53
2021/08/01 02:11:26;;;;;;;7.50;6.67;;;;;;;;;;5035398;28;20486;-52
2021/08/01 02:13:57;;;;;;;6.53;5.67;;;;;;;;;;5035084;28;21042;-51
2021/08/01 02:16:28;;;;;;;8.80;5.70;;;;;;;;;;5035208;28;20461;-55
2021/08/01 02:18:59;;;;;;;6.03;5.37;;;;;;;;;;5035212;28;20910;-52
2021/08/01 02:21:27;;;;;;;7.60;5.73;;;;;;;;;;5035320;28;20430;-52
2021/08/01 02:23:55;;;;;;;6.20;5.30;;;;;;;;;;5034918;28;21020;-53
2021/08/01 02:26:24;;;;;;;8.30;6.10;;;;;;;;;;5034769;28;20468;-52
2021/08/01 02:28:54;;;;;;;5.93;5.33;;;;;;;;;;5035094;28;20449;-56
2021/08/01 02:31:21;;;;;;;8.57;5.53;;;;;;;;;;5034814;28;20445;-53
2021/08/01 02:33:49;;;;;;;6.63;5.90;;;;;;;;;;5034628;28;20473;-55
2021/08/01 02:36:16;;;;;;;6.53;5.63;;;;;;;;;;5034867;28;20468;-53
2021/08/01 02:38:44;;;;;;;5.63;5.13;;;;;;;;;;5034890;28;20444;-53
2021/08/01 02:41:20;;;;;;;6.50;5.87;;;;;;;;;;5034753;28;20503;-55
2021/08/01 02:43:49;;;;;;;7.00;6.27;;;;;;;;;;5034547;28;20878;-55
2021/08/01 02:46:18;;;;;;;6.00;5.40;;;;;;;;;;5033986;28;20460;-54
2021/08/01 02:48:45;;;;;;;7.03;5.47;;;;;;;;;;5034115;28;20519;-55
2021/08/01 02:51:12;;;;;;;9.80;6.40;;;;;;;;;;5034646;28;20448;-53
2021/08/01 02:53:45;;;;;;;5.80;5.30;;;;;;;;;;5034257;28;20484;-55
2021/08/01 02:56:14;;;;;;;6.07;5.13;;;;;;;;;;5034153;28;20485;-56
2021/08/01 02:58:42;;;;;;;5.63;5.13;;;;;;;;;;5034966;28;20503;-56
2021/08/01 03:01:11;;;;;;;7.13;5.07;;;;;;;;;;5058527;22;20566;-54
2021/08/01 03:03:42;;;;;;;5.50;5.10;;;;;;;;;;5034363;28;20544;-54
2021/08/01 03:06:09;;;;;;;5.93;5.43;;;;;;;;;;5034586;28;20865;-54
2021/08/01 03:08:37;;;;;;;6.40;5.00;;;;;;;;;;5034006;28;20453;-54
2021/08/01 03:11:04;;;;;;;7.30;4.97;;;;;;;;;;5034358;28;20464;-54
2021/08/01 03:13:31;;;;;;;5.23;4.67;;;;;;;;;;5033935;28;20445;-54
2021/08/01 03:15:58;;;;;;;6.03;4.87;;;;;;;;;;5034148;28;20503;-54
2021/08/01 03:18:25;;;;;;;5.50;5.10;;;;;;;;;;5034974;28;20449;-54
2021/08/01 03:20:54;;;;;;;5.83;5.20;;;;;;;;;;5033698;28;20519;-54
2021/08/01 03:23:21;;;;;;;8.37;5.40;;;;;;;;;;5033972;28;20445;-55
2021/08/01 03:25:49;;;;;;;5.67;5.10;;;;;;;;;;5033637;28;20449;-53
2021/08/01 03:28:16;;;;;;;6.20;5.00;;;;;;;;;;5033869;28;20503;-53
2021/08/01 03:30:43;;;;;;;5.73;5.13;;;;;;;;;;5033483;28;20469;-54
2021/08/01 03:33:10;;;;;;;6.57;5.43;;;;;;;;;;5033835;28;20494;-54
2021/08/01 03:35:37;;;;;;;6.00;5.50;;;;;;;;;;5033478;28;20916;-54
2021/08/01 03:38:06;;;;;;;6.77;5.70;;;;;;;;;;5033558;28;20475;-54
2021/08/01 03:40:33;;;;;;;7.43;6.37;;;;;;;;;;5035277;28;20526;-54
2021/08/01 03:43:00;;;;;;;6.30;5.03;;;;;;;;;;5033898;28;20506;-53
2021/08/01 03:45:28;;;;;;;6.13;5.50;;;;;;;;;;5036017;28;21006;-53
2021/08/01 03:47:55;;;;;;;7.03;5.83;;;;;;;;;;5037658;28;20441;-53
2021/08/01 03:50:22;;;;;;;7.17;6.50;;;;;;;;;;5038890;28;20453;-53
2021/08/01 03:52:49;;;;;;;7.50;6.13;;;;;;;;;;5039449;28;20445;-53
2021/08/01 03:55:18;;;;;;;6.80;6.20;;;;;;;;;;5039506;28;20492;-55
2021/08/01 03:57:45;;;;;;;6.60;5.73;;;;;;;;;;5039893;28;20445;-55
2021/08/01 04:00:13;;;;;;;6.67;6.00;;;;;;;;;;5040358;28;20471;-56
2021/08/01 04:02:41;;;;;;;7.10;6.50;;;;;;;;;;5040856;28;20536;-54
2021/08/01 04:08:24;;;;;;;6.50;5.77;;;;;;;;;;5096460;27;20576;-53
2021/08/01 04:10:51;;;;;;;7.60;6.80;;;;;;;;;;5096415;28;21038;-54
2021/08/01 04:13:18;;;;;;;6.67;6.07;;;;;;;;;;5094688;28;20451;-53
2021/08/01 04:15:46;;;;;;;7.63;6.87;;;;;;;;;;5096296;28;20480;-54
2021/08/01 04:18:13;;;;;;;8.27;6.40;;;;;;;;;;5092871;28;20525;-54
2021/08/01 04:20:41;;;;;;;6.60;6.00;;;;;;;;;;5091701;28;20458;-54
2021/08/01 04:23:08;;;;;;;9.30;6.27;;;;;;;;;;5092399;28;20450;-54
2021/08/01 04:25:36;;;;;;;7.03;6.33;;;;;;;;;;5092097;28;20898;-54
2021/08/01 04:28:04;;;;;;;8.57;7.03;;;;;;;;;;5091774;28;20474;-54
2021/08/01 04:30:31;;;;;;;7.13;6.40;;;;;;;;;;5092438;28;20500;-54
2021/08/01 04:32:58;;;;;;;6.77;6.13;;;;;;;;;;5090778;28;20937;-53
2021/08/01 04:35:26;;;;;;;7.67;6.90;;;;;;;;;;5091633;28;20434;-52
2021/08/01 04:37:53;;;;;;;6.20;5.60;;;;;;;;;;5093440;28;20443;-51
2021/08/01 04:40:20;;;;;;;8.23;6.97;;;;;;;;;;5091832;28;20508;-54
2021/08/01 04:42:49;;;;;;;6.33;5.83;;;;;;;;;;5096158;28;20447;-54
2021/08/01 04:45:16;;;;;;;7.53;5.73;;;;;;;;;;5099512;28;20438;-54
2021/08/01 04:47:43;;;;;;;6.70;6.10;;;;;;;;;;5098930;28;20474;-54
2021/08/01 04:50:11;;;;;;;7.97;6.00;;;;;;;;;;5098054;28;20500;-54
2021/08/01 04:52:40;;;;;;;8.60;5.90;;;;;;;;;;5097910;28;20434;-55
2021/08/01 04:55:07;;;;;;;6.03;5.40;;;;;;;;;;5097376;28;20913;-55
2021/08/01 04:57:34;;;;;;;5.90;5.30;;;;;;;;;;5098672;28;20431;-55
2021/08/01 05:00:03;;;;;;;5.20;4.70;;;;;;;;;;5090749;28;20503;-55
2021/08/01 05:02:30;;;;;;;5.17;4.67;;;;;;;;;;5089984;28;20462;-55
2021/08/01 05:04:58;;;;;;;6.03;4.87;;;;;;;;;;5091546;28;20511;-55
2021/08/01 05:07:25;;;;;;;5.23;4.33;;;;;;;;;;5089460;28;20482;-55
2021/08/01 05:09:52;;;;;;;4.90;4.33;;;;;;;;;;5089513;28;20458;-55
2021/08/01 05:12:19;;;;;;;7.17;5.83;;;;;;;;;;5089588;28;20462;-55
2021/08/01 05:14:47;;;;;;;5.97;5.00;;;;;;;;;;5089307;28;20922;-55
2021/08/01 05:17:16;;;;;;;6.43;5.63;;;;;;;;;;5089259;28;20534;-55
2021/08/01 05:19:44;;;;;;;5.87;5.33;;;;;;;;;;5076763;28;20446;-55
2021/08/01 05:22:12;;;;;;;6.93;5.70;;;;;;;;;;5075900;28;20466;-54
2021/08/01 05:24:39;;;;;;;5.30;4.80;;;;;;;;;;5075958;28;20855;-56
2021/08/01 05:27:07;;;;;;;5.30;4.90;;;;;;;;;;5076029;28;20479;-53
2021/08/01 05:29:34;;;;;;;5.60;5.10;;;;;;;;;;5075704;28;20443;-53
2021/08/01 05:32:02;;;;;;;6.90;5.50;;;;;;;;;;5075786;28;20516;-54
2021/08/01 05:34:31;;;;;;;6.33;5.70;;;;;;;;;;5075654;28;20469;-55
2021/08/01 05:36:59;;;;;;;6.50;5.70;;;;;;;;;;5075485;28;21013;-53
2021/08/01 05:39:26;;;;;;;9.73;6.43;;;;;;;;;;5075628;28;20455;-53
2021/08/01 05:41:53;;;;;;;6.13;5.53;;;;;;;;;;5075357;28;20462;-54
2021/08/01 05:44:20;;;;;;;7.80;5.63;;;;;;;;;;5075851;28;20504;-54
2021/08/01 05:46:48;;;;;;;7.50;5.60;;;;;;;;;;5075353;28;20471;-54
2021/08/01 05:49:15;;;;;;;7.90;5.73;;;;;;;;;;5075759;28;20459;-54
2021/08/01 05:51:43;;;;;;;6.33;5.73;;;;;;;;;;5075245;28;20463;-54
2021/08/01 05:54:11;;;;;;;6.60;5.50;;;;;;;;;;5075098;28;20939;-54
2021/08/01 05:56:38;;;;;;;6.70;6.10;;;;;;;;;;5075067;28;20446;-54
2021/08/01 05:59:05;;;;;;;6.73;6.13;;;;;;;;;;5076049;28;20485;-56
2021/08/01 06:01:32;;;;;;;6.83;6.20;;;;;;;;;;5074950;28;20983;-54
2021/08/01 06:04:00;;;;;;;7.90;6.30;;;;;;;;;;5075770;28;20488;-54
2021/08/01 06:06:27;;;;;;;7.30;6.70;;;;;;;;;;5074986;28;20463;-54
2021/08/01 06:08:56;;;;;;;6.43;5.93;;;;;;;;;;5075208;28;20462;-54
2021/08/01 06:11:24;;;;;;;8.53;6.80;;;;;;;;;;5074658;28;20525;-54
2021/08/01 06:13:51;;;;;;;7.23;6.63;;;;;;;;;;5075075;28;20451;-54
2021/08/01 06:16:19;;;;;;;9.10;7.00;;;;;;;;;;5074673;28;20435;-54
2021/08/01 06:18:46;;;;;;;8.33;7.53;;;;;;;;;;5075103;28;20451;-54
2021/08/01 06:21:16;;;;;;;11.57;7.80;;;;;;;;;;5074796;28;20456;-54
2021/08/01 06:23:44;;;;;;;9.07;8.17;;;;;;;;;;5075222;28;20440;-55
2021/08/01 06:26:13;;;;;;;9.50;7.63;;;;;;;;;;5075069;28;20447;-54
2021/08/01 06:28:40;;;;;;;8.30;7.50;;;;;;;;;;5074795;28;20470;-54
2021/08/01 06:31:08;;;;;;;8.13;7.33;;;;;;;;;;5073427;28;20917;-54
2021/08/01 06:33:35;;;;;;;9.03;8.03;;;;;;;;;;5074444;28;20446;-54
2021/08/01 06:36:05;;;;;;;7.70;6.90;;;;;;;;;;5074441;28;20992;-55
2021/08/01 06:38:32;;;;;;;8.17;7.37;;;;;;;;;;5074634;28;20504;-54
2021/08/01 06:41:00;;;;;;;7.17;6.50;;;;;;;;;;5074578;28;20467;-54
2021/08/01 06:43:28;;;;;;;9.50;8.60;;;;;;;;;;5075134;28;20508;-54
2021/08/01 06:45:55;;;;;;;9.87;7.20;;;;;;;;;;5075606;28;20512;-54
2021/08/01 06:48:23;;;;;;;7.50;6.50;;;;;;;;;;5074066;28;21051;-54
2021/08/01 06:50:51;;;;;;;7.43;6.73;;;;;;;;;;5073992;28;20499;-54
2021/08/01 06:53:18;;;;;;;7.73;7.00;;;;;;;;;;5074261;28;20500;-54
2021/08/01 06:55:45;;;;;;;7.83;6.50;;;;;;;;;;5074292;28;20500;-54
2021/08/01 06:58:12;;;;;;;6.97;6.37;;;;;;;;;;5074215;28;20848;-55
2021/08/01 07:00:41;;;;;;;7.37;6.67;;;;;;;;;;5074042;28;20471;-54
2021/08/01 07:03:08;;;;;;;9.17;6.30;;;;;;;;;;5074092;28;20443;-53
2021/08/01 07:05:35;;;;;;;7.43;6.70;;;;;;;;;;5074387;28;20447;-56
2021/08/01 07:08:02;;;;;;;7.23;6.40;;;;;;;;;;5073590;28;20540;-55
2021/08/01 07:10:30;;;;;;;8.67;5.93;;;;;;;;;;5074086;28;20466;-56
2021/08/01 07:12:57;;;;;;;6.03;5.43;;;;;;;;;;5073779;28;20517;-55
2021/08/01 07:15:25;;;;;;;9.47;6.40;;;;;;;;;;5074212;28;20447;-57
2021/08/01 07:17:56;;;;;;;6.33;5.70;;;;;;;;;;5074281;28;20803;-53
2021/08/01 07:20:24;;;;;;;6.00;5.13;;;;;;;;;;5073619;28;20432;-53
2021/08/01 07:22:51;;;;;;;6.80;5.57;;;;;;;;;;5073479;28;20451;-53
2021/08/01 07:25:19;;;;;;;6.50;5.90;;;;;;;;;;5073935;28;20444;-53
2021/08/01 07:27:46;;;;;;;7.37;6.67;;;;;;;;;;5074074;28;20471;-53
2021/08/01 07:30:14;;;;;;;8.90;6.00;;;;;;;;;;5073702;28;20935;-55
2021/08/01 07:32:41;;;;;;;6.30;5.70;;;;;;;;;;5073758;28;20500;-54
2021/08/01 07:35:10;;;;;;;7.83;7.10;;;;;;;;;;5073714;28;20525;-55
2021/08/01 07:37:38;;;;;;;7.50;6.77;;;;;;;;;;5073322;28;20447;-55
2021/08/01 07:40:05;;;;;;;8.03;6.63;;;;;;;;;;5073580;28;20443;-55
2021/08/01 07:42:33;;;;;;;10.27;6.70;;;;;;;;;;5072987;28;20526;-55
2021/08/01 07:45:03;;;;;;;6.30;5.70;;;;;;;;;;5073330;28;20447;-55
2021/08/01 07:47:34;;;;;;;6.30;5.63;;;;;;;;;;5073438;28;20527;-55
2021/08/01 07:50:01;;;;;;;7.13;6.23;;;;;;;;;;5073215;28;20988;-53
2021/08/01 07:52:29;;;;;;;9.87;5.90;;;;;;;;;;5072957;28;20473;-55
2021/08/01 07:54:57;;;;;;;6.27;5.67;;;;;;;;;;5074055;28;20442;-53
2021/08/01 07:57:26;;;;;;;6.80;6.20;;;;;;;;;;5072972;28;20936;-53
2021/08/01 07:59:54;;;;;;;7.50;6.80;;;;;;;;;;5073209;28;20444;-54
2021/08/01 08:02:21;;;;;;;6.20;5.33;;;;;;;;;;5073108;28;20523;-53
2021/08/01 08:04:48;;;;;;;6.07;5.57;;;;;;;;;;5072590;28;20502;-53
2021/08/01 08:07:16;;;;;;;6.77;6.17;;;;;;;;;;5072625;28;21024;-54
2021/08/01 08:09:44;;;;;;;7.67;5.73;;;;;;;;;;5073109;28;20494;-54
2021/08/01 08:12:12;;;;;;;5.97;5.37;;;;;;;;;;5072746;28;20474;-54
2021/08/01 08:14:39;;;;;;;8.70;5.70;;;;;;;;;;5073159;28;20494;-54
2021/08/01 08:17:07;;;;;;;6.23;5.63;;;;;;;;;;5073031;28;20440;-54
2021/08/01 08:19:34;;;;;;;8.07;5.33;;;;;;;;;;5073002;28;20444;-54
2021/08/01 08:22:01;;;;;;;6.00;5.50;;;;;;;;;;5072940;28;20455;-54
2021/08/01 08:24:28;;;;;;;7.57;6.40;;;;;;;;;;5073112;28;20444;-54
2021/08/01 08:26:57;;;;;;;12.20;5.53;;;;;;;;;;5072987;28;20443;-54
2021/08/01 08:29:25;;;;;;;6.20;5.60;;;;;;;;;;5072886;28;20475;-54
2021/08/01 08:31:52;;;;;;;5.10;4.20;;;;;;;;;;5073024;28;20521;-54
2021/08/01 08:34:20;;;;;;;6.73;4.70;;;;;;;;;;5072852;28;20451;-54
2021/08/01 08:36:49;;;;;;;5.80;4.87;;;;;;;;;;5073477;28;20438;-54
2021/08/01 08:39:17;;;;;;;9.17;5.60;;;;;;;;;;5073232;28;20487;-54
2021/08/01 08:41:44;;;;;;;5.00;4.50;;;;;;;;;;5072781;28;20487;-54
2021/08/01 08:44:13;;;;;;;6.40;5.80;;;;;;;;;;5072895;28;20441;-54
2021/08/01 08:46:41;;;;;;;7.30;5.60;;;;;;;;;;5072408;28;20863;-53
2021/08/01 08:49:09;;;;;;;7.87;5.37;;;;;;;;;;5072315;28;20891;-54
2021/08/01 08:51:37;;;;;;;4.80;4.40;;;;;;;;;;5072913;28;20500;-54
2021/08/01 08:54:05;;;;;;;4.90;4.50;;;;;;;;;;5074750;28;20446;-54
2021/08/01 08:56:33;;;;;;;5.30;4.80;;;;;;;;;;5076659;28;20535;-54
2021/08/01 08:59:00;;;;;;;7.33;5.50;;;;;;;;;;5076425;28;20451;-55
2021/08/01 09:01:29;;;;;;;6.97;4.80;;;;;;;;;;5089935;22;20610;-54
2021/08/01 09:03:56;;;;;;;6.03;5.07;;;;;;;;;;5037152;28;20456;-54
2021/08/01 09:06:23;;;;;;;5.07;4.57;;;;;;;;;;5035815;28;20933;-54
2021/08/01 09:08:50;;;;;;;4.67;4.27;;;;;;;;;;5035797;28;20522;-54
2021/08/01 09:11:17;;;;;;;4.77;4.33;;;;;;;;;;5036006;28;20515;-53
2021/08/01 09:13:46;;;;;;;5.97;4.27;;;;;;;;;;5035850;28;20859;-53
2021/08/01 09:16:13;;;;;;;4.73;4.30;;;;;;;;;;5035987;28;20452;-55
2021/08/01 09:18:42;;;;;;;4.27;3.83;;;;;;;;;;5036079;28;20449;-55
2021/08/01 09:21:09;;;;;;;5.60;4.60;;;;;;;;;;5036610;28;20829;-54
2021/08/01 09:23:37;;;;;;;4.87;4.37;;;;;;;;;;5036864;28;20860;-55
2021/08/01 09:26:05;;;;;;;5.00;4.50;;;;;;;;;;5038694;28;20444;-53
2021/08/01 09:28:32;;;;;;;5.60;4.23;;;;;;;;;;5036519;28;21044;-54
2021/08/01 09:31:01;;;;;;;5.10;4.60;;;;;;;;;;5036511;28;20441;-54
2021/08/01 09:33:36;;;;;;;4.90;4.40;;;;;;;;;;5036144;28;20495;-54
2021/08/01 09:36:08;;;;;;;4.83;4.43;;;;;;;;;;5035440;28;20455;-54
2021/08/01 09:38:49;;;;;;;5.40;4.70;;;;;;;;;;5035622;28;20986;-55
2021/08/01 09:41:18;;;;;;;4.23;3.93;;;;;;;;;;5035451;28;21054;-55
2021/08/01 09:43:46;;;;;;;5.50;4.80;;;;;;;;;;5035784;28;20491;-55
2021/08/01 09:46:13;;;;;;;5.30;4.80;;;;;;;;;;5035547;28;20459;-55
2021/08/01 09:48:41;;;;;;;5.93;4.57;;;;;;;;;;5035581;28;20525;-55
2021/08/01 09:51:10;;;;;;;4.70;4.30;;;;;;;;;;5035561;28;20520;-55
2021/08/01 09:53:39;;;;;;;4.67;4.27;;;;;;;;;;5035629;28;20458;-55
2021/08/01 09:56:21;;;;;;;6.50;4.70;;;;;;;;;;5035368;28;20457;-55
2021/08/01 09:58:49;;;;;;;4.70;4.30;;;;;;;;;;5037685;28;20533;-55
2021/08/01 10:01:17;;;;;;;4.87;4.40;;;;;;;;;;5034961;28;20473;-54
2021/08/01 10:03:45;;;;;;;4.53;4.13;;;;;;;;;;5034964;28;20437;-55
2021/08/01 10:06:14;;;;;;;5.60;4.60;;;;;;;;;;5034779;28;20942;-55
2021/08/01 10:08:42;;;;;;;5.07;4.20;;;;;;;;;;5035001;28;20553;-55
2021/08/01 10:11:10;;;;;;;4.90;4.50;;;;;;;;;;5034878;28;20517;-55
2021/08/01 10:13:38;;;;;;;10.20;4.37;;;;;;;;;;5035068;28;20443;-55
2021/08/01 10:16:05;;;;;;;4.40;4.00;;;;;;;;;;5035007;28;20506;-54
2021/08/01 10:18:33;;;;;;;4.53;4.13;;;;;;;;;;5034900;28;20933;-55
2021/08/01 10:21:00;;;;;;;4.73;4.13;;;;;;;;;;5034875;28;20509;-54
2021/08/01 10:23:30;;;;;;;4.97;3.67;;;;;;;;;;5034774;28;20517;-55
2021/08/01 10:25:57;;;;;;;3.53;3.23;;;;;;;;;;5034670;28;20503;-55
2021/08/01 10:28:25;;;;;;;5.23;3.57;;;;;;;;;;5035063;28;20481;-55
2021/08/01 10:30:53;;;;;;;4.50;3.17;;;;;;;;;;5034593;28;20453;-55
2021/08/01 10:33:23;;;;;;;4.00;3.70;;;;;;;;;;5034589;28;20447;-55
2021/08/01 10:35:53;;;;;;;3.20;2.90;;;;;;;;;;5034753;28;20861;-55
2021/08/01 10:38:22;;;;;;;3.40;3.10;;;;;;;;;;5034600;28;20451;-55
2021/08/01 10:40:52;;;;;;;3.60;3.30;;;;;;;;;;5034057;28;20451;-56
2021/08/01 10:43:21;;;;;;;3.53;3.23;;;;;;;;;;5034272;28;20463;-55
2021/08/01 10:45:48;;;;;;;3.57;2.90;;;;;;;;;;5034357;28;20450;-55
2021/08/01 10:48:16;;;;;;;4.13;3.73;;;;;;;;;;5033965;28;20459;-55
2021/08/01 10:50:43;;;;;;;3.70;3.10;;;;;;;;;;5034302;28;20501;-55
2021/08/01 10:53:27;;;;;;;3.60;3.30;;;;;;;;;;5034170;28;20472;-55
2021/08/01 10:56:15;;;;;;;3.20;2.57;;;;;;;;;;5034209;28;20474;-55
2021/08/01 10:58:43;;;;;;;3.80;3.50;;;;;;;;;;5033824;28;20443;-55
2021/08/01 11:01:10;;;;;;;2.47;2.27;;;;;;;;;;5033761;28;20537;-55
2021/08/01 11:03:39;;;;;;;2.53;2.20;;;;;;;;;;5033842;28;20440;-55
2021/08/01 11:06:07;;;;;;;2.33;1.97;;;;;;;;;;5034165;28;20456;-55
2021/08/01 11:08:35;;;;;;;2.33;2.13;;;;;;;;;;5033895;28;20484;-53
2021/08/01 11:11:18;;;;;;;2.80;2.27;;;;;;;;;;5033654;28;20448;-55
2021/08/01 11:13:46;;;;;;;3.23;2.80;;;;;;;;;;5034187;28;20424;-55
2021/08/01 11:16:37;;;;;;;2.33;2.10;;;;;;;;;;5033202;28;20473;-55
2021/08/01 11:19:19;;;;;;;2.33;2.20;;;;;;;;;;5033833;28;20440;-55
2021/08/01 11:21:47;;;;;;;2.93;2.73;;;;;;;;;;5034074;28;20465;-55
2021/08/01 11:24:15;;;;;;;2.60;2.13;;;;;;;;;;5034363;28;20473;-54
2021/08/01 11:27:00;;;;;;;5.60;3.60;;;;;;;;;;5033241;28;20452;-55
2021/08/01 11:29:29;;;;;;;3.27;2.60;;;;;;;;;;5034045;28;20553;-55
2021/08/01 11:32:07;;;;;;;3.83;2.70;;;;;;;;;;5033333;28;20996;-55
2021/08/01 11:34:36;;;;;;;4.07;3.20;;;;;;;;;;5033738;28;20480;-57
2021/08/01 11:37:20;;;;;;;3.50;3.20;;;;;;;;;;5032654;28;20444;-56
2021/08/01 11:39:54;;;;;;;2.93;2.73;;;;;;;;;;5032541;28;20940;-56
2021/08/01 11:42:23;;;;;;;3.03;2.83;;;;;;;;;;5033091;28;20525;-54
2021/08/01 11:44:58;;;;;;;3.80;2.80;;;;;;;;;;5032989;28;20484;-55
2021/08/01 11:47:26;;;;;;;3.30;3.00;;;;;;;;;;5033107;28;20903;-55
2021/08/01 11:49:54;;;;;;;2.93;2.73;;;;;;;;;;5033084;28;20477;-54
2021/08/01 11:52:22;;;;;;;3.30;3.00;;;;;;;;;;5032759;28;20471;-55
2021/08/01 11:54:54;;;;;;;4.50;3.60;;;;;;;;;;5033008;28;20533;-54
2021/08/01 11:57:22;;;;;;;3.33;3.03;;;;;;;;;;5032930;28;20529;-55
2021/08/01 11:59:53;;;;;;;5.13;3.50;;;;;;;;;;5032848;28;20468;-54
2021/08/01 12:02:22;;;;;;;3.67;3.33;;;;;;;;;;5032595;28;20532;-55
2021/08/01 12:04:53;;;;;;;3.60;3.30;;;;;;;;;;5032924;28;20448;-54
2021/08/01 12:07:20;;;;;;;4.07;2.90;;;;;;;;;;5032637;28;20907;-56
2021/08/01 12:09:48;;;;;;;2.87;2.67;;;;;;;;;;5032900;28;20490;-55
2021/08/01 12:12:15;;;;;;;2.70;2.50;;;;;;;;;;5032639;28;20509;-54
2021/08/01 12:14:43;;;;;;;3.20;2.87;;;;;;;;;;5032623;28;20449;-55
2021/08/01 12:17:11;;;;;;;3.50;3.20;;;;;;;;;;5032579;28;20452;-55
2021/08/01 12:19:41;;;;;;;3.50;2.60;;;;;;;;;;5032809;28;20445;-52
2021/08/01 12:22:09;;;;;;;3.70;2.40;;;;;;;;;;5032514;28;20542;-53
2021/08/01 12:24:41;;;;;;;4.10;2.80;;;;;;;;;;5032581;28;20458;-54
2021/08/01 12:27:10;;;;;;;3.13;2.83;;;;;;;;;;5032754;28;20495;-54
2021/08/01 12:29:39;;;;;;;3.00;2.50;;;;;;;;;;5035678;28;20480;-54
2021/08/01 12:32:27;;;;;;;3.10;2.27;;;;;;;;;;5036472;28;20966;-52
2021/08/01 12:35:03;;;;;;;2.90;2.60;;;;;;;;;;5032156;28;20504;-55
2021/08/01 12:37:31;;;;;;;2.90;2.03;;;;;;;;;;5036795;28;20443;-54
2021/08/01 12:39:59;;;;;;;2.43;2.33;;;;;;;;;;5036421;28;20849;-53
2021/08/01 12:42:26;;;;;;;4.20;2.30;;;;;;;;;;5036583;28;20515;-54
2021/08/01 12:44:55;;;;;;;2.60;2.30;;;;;;;;;;5036720;28;20441;-54
2021/08/01 12:47:22;;;;;;;3.00;2.80;;;;;;;;;;5036443;28;20444;-54
2021/08/01 12:49:49;;;;;;;3.30;2.67;;;;;;;;;;5036591;28;20482;-55
2021/08/01 12:52:22;;;;;;;4.10;3.30;;;;;;;;;;5036519;28;20521;-55
2021/08/01 12:54:50;;;;;;;3.03;2.67;;;;;;;;;;5036639;28;20535;-55
2021/08/01 12:57:17;;;;;;;3.83;2.70;;;;;;;;;;5036276;28;20450;-55
2021/08/01 13:00:00;;;;;;;3.27;2.97;;;;;;;;;;5036410;28;20450;-55
2021/08/01 13:02:29;;;;;;;3.17;2.97;;;;;;;;;;5035727;28;20478;-56
2021/08/01 13:04:56;;;;;;;3.40;2.70;;;;;;;;;;5036474;28;20471;-55
2021/08/01 13:07:25;;;;;;;3.37;3.17;;;;;;;;;;5036076;28;20456;-54
2021/08/01 13:09:59;;;;;;;3.07;2.87;;;;;;;;;;5036154;28;20483;-54
2021/08/01 13:12:26;;;;;;;5.17;3.47;;;;;;;;;;5036280;28;20478;-54
2021/08/01 13:14:53;;;;;;;3.93;3.20;;;;;;;;;;5036199;28;20448;-55
2021/08/01 13:17:40;;;;;;;4.17;3.87;;;;;;;;;;5036002;28;20857;-54
2021/08/01 13:20:08;;;;;;;4.40;4.00;;;;;;;;;;5035716;28;20517;-55
2021/08/01 13:22:36;;;;;;;4.13;3.83;;;;;;;;;;5035875;28;20476;-55
2021/08/01 13:25:05;;;;;;;6.03;5.00;;;;;;;;;;5035923;28;20525;-55
2021/08/01 13:27:49;;;;;;;4.97;4.47;;;;;;;;;;5035687;28;20499;-55
2021/08/01 13:30:18;;;;;;;5.17;4.67;;;;;;;;;;5035793;28;20556;-54
2021/08/01 13:32:46;;;;;;;6.43;5.83;;;;;;;;;;5035884;28;20586;-54
2021/08/01 13:35:20;;;;;;;7.53;6.83;;;;;;;;;;5035506;28;21026;-55
2021/08/01 13:38:01;;;;;;;5.77;5.07;;;;;;;;;;5036636;28;20453;-55
2021/08/01 13:40:29;;;;;;;7.83;7.03;;;;;;;;;;5035341;28;20438;-55
2021/08/01 13:42:57;;;;;;;10.67;9.63;;;;;;;;;;5035248;28;20565;-55
2021/08/01 13:45:26;;;;;;;12.10;10.93;;;;;;;;;;5035760;28;20445;-54
2021/08/01 13:47:54;;;;;;;11.77;10.77;;;;;;;;;;5035402;28;20937;-56
2021/08/01 13:50:22;;;;;;;12.43;11.27;;;;;;;;;;5035256;28;20997;-56
2021/08/01 13:52:51;;;;;;;12.07;10.90;;;;;;;;;;5035320;28;20473;-56
2021/08/01 13:55:19;;;;;;;11.33;10.43;;;;;;;;;;5035554;28;20444;-56
2021/08/01 13:57:47;;;;;;;11.67;10.77;;;;;;;;;;5035570;28;20445;-56
2021/08/01 14:00:15;;;;;;;11.67;10.47;;;;;;;;;;5035243;28;20512;-56
2021/08/01 14:02:42;;;;;;;11.43;10.40;;;;;;;;;;5034953;28;20985;-55
2021/08/01 14:05:10;;;;;;;10.27;9.47;;;;;;;;;;5035368;28;20442;-55
2021/08/01 14:07:37;;;;;;;7.70;7.00;;;;;;;;;;5034786;28;20446;-55
2021/08/01 14:10:06;;;;;;;7.53;7.03;;;;;;;;;;5034732;28;21006;-55
2021/08/01 14:12:35;;;;;;;5.70;5.20;;;;;;;;;;5035099;28;20464;-55
2021/08/01 14:15:07;;;;;;;6.77;6.17;;;;;;;;;;5034744;28;20971;-55
2021/08/01 14:17:35;;;;;;;5.73;5.23;;;;;;;;;;5035804;28;20440;-55
2021/08/01 14:20:02;;;;;;;5.63;4.77;;;;;;;;;;5034606;28;20446;-55
2021/08/01 14:22:29;;;;;;;6.10;5.30;;;;;;;;;;5034595;28;20489;-55
2021/08/01 14:24:57;;;;;;;5.67;5.10;;;;;;;;;;5034850;28;20450;-56
2021/08/01 14:27:26;;;;;;;5.00;4.50;;;;;;;;;;5034460;28;21012;-56
2021/08/01 14:29:58;;;;;;;7.70;4.70;;;;;;;;;;5034308;28;20892;-56
2021/08/01 14:32:25;;;;;;;5.47;4.03;;;;;;;;;;5034659;28;20481;-56
2021/08/01 14:34:53;;;;;;;9.13;4.40;;;;;;;;;;5034686;28;20452;-56
2021/08/01 14:37:20;;;;;;;4.50;4.10;;;;;;;;;;5034250;28;20945;-57
2021/08/01 14:39:48;;;;;;;3.90;3.60;;;;;;;;;;5034395;28;20506;-56
2021/08/01 14:42:16;;;;;;;3.33;3.13;;;;;;;;;;5034205;28;20469;-57
2021/08/01 14:44:46;;;;;;;4.10;3.17;;;;;;;;;;5034658;28;20794;-57
2021/08/01 14:47:20;;;;;;;2.63;2.43;;;;;;;;;;5034072;28;20576;-58
2021/08/01 14:49:50;;;;;;;2.87;2.60;;;;;;;;;;5034196;28;20461;-58
2021/08/01 14:55:02;;;;;;;2.27;2.07;;;;;;;;;;5034419;28;20490;-57
2021/08/01 14:57:36;;;;;;;2.40;2.20;;;;;;;;;;5034145;28;20485;-56
2021/08/01 15:00:08;;;;;;;2.40;2.17;;;;;;;;;;5034186;28;20496;-57